sensor_id;sensor_type;location;lat;lon;timestamp;pressure;altitude;pressure_sealevel;temperature;humidity
25080;BME280;13071;48.868;9.996;2023-11-21T00:01:02;95895.97;;;7.57;100.00
25080;BME280;13071;48.868;9.996;2023-11-21T00:03:29;95898.13;;;7.43;100.00
25080;BME280;13071;48.868;9.996;2023-11-21T00:05:57;95896.53;;;7.42;100.00
25080;BME280;13071;48.868;9.996;2023-11-21T00:08:24;95885.00;;;7.41;100.00
25080;BME280;13071;48.868;9.996;2023-11-21T00:10:50;95890.13;;;7.34;100.00
25080;BME280;13071;48.868;9.996;2023-11-21T00:13:17;95894.91;;;7.28;100.00
25080;BME280;13071;48.868;9.996;2023-11-21T00:15:44;95895.09;;;7.23;100.00
25080;BME280;13071;48.868;9.996;2023-11-21T00:18:10;95888.72;;;7.28;100.00
25080;BME280;13071;48.868;9.996;2023-11-21T00:20:37;95891.41;;;7.28;100.00
25080;BME280;13071;48.868;9.996;2023-11-21T00:23:05;95885.13;;;7.45;100.00
25080;BME280;13071;48.868;9.996;2023-11-21T00:25:32;95880.94;;;7.35;100.00
25080;BME280;13071;48.868;9.996;2023-11-21T00:27:58;95880.59;;;7.36;100.00
25080;BME280;13071;48.868;9.996;2023-11-21T00:30:26;95878.38;;;7.38;100.00
25080;BME280;13071;48.868;9.996;2023-11-21T00:32:54;95877.09;;;7.36;100.00
25080;BME280;13071;48.868;9.996;2023-11-21T00:35:20;95877.09;;;7.36;100.00
25080;BME280;13071;48.868;9.996;2023-11-21T00:37:47;95879.16;;;7.39;100.00
25080;BME280;13071;48.868;9.996;2023-11-21T00:40:16;95879.00;;;7.35;100.00
25080;BME280;13071;48.868;9.996;2023-11-21T00:42:44;95875.31;;;7.40;100.00
25080;BME280;13071;48.868;9.996;2023-11-21T00:45:11;95877.69;;;7.42;100.00
25080;BME280;13071;48.868;9.996;2023-11-21T00:47:38;95875.31;;;7.40;100.00
25080;BME280;13071;48.868;9.996;2023-11-21T00:50:05;95875.00;;;7.42;100.00
25080;BME280;13071;48.868;9.996;2023-11-21T00:52:32;95879.94;;;7.40;100.00
25080;BME280;13071;48.868;9.996;2023-11-21T00:54:59;95874.09;;;7.37;100.00
25080;BME280;13071;48.868;9.996;2023-11-21T00:57:28;95872.50;;;7.36;100.00
25080;BME280;13071;48.868;9.996;2023-11-21T00:59:55;95872.84;;;7.35;100.00
25080;BME280;13071;48.868;9.996;2023-11-21T01:02:21;95875.69;;;7.38;100.00
25080;BME280;13071;48.868;9.996;2023-11-21T01:04:48;95876.00;;;7.37;100.00
25080;BME280;13071;48.868;9.996;2023-11-21T01:07:14;95879.47;;;7.37;100.00
25080;BME280;13071;48.868;9.996;2023-11-21T01:09:41;95881.69;;;7.35;100.00
25080;BME280;13071;48.868;9.996;2023-11-21T01:12:09;95882.47;;;7.36;100.00
25080;BME280;13071;48.868;9.996;2023-11-21T01:14:38;95874.59;;;7.31;100.00
25080;BME280;13071;48.868;9.996;2023-11-21T01:17:04;95875.78;;;7.21;100.00
25080;BME280;13071;48.868;9.996;2023-11-21T01:19:31;95879.72;;;7.24;100.00
25080;BME280;13071;48.868;9.996;2023-11-21T01:21:57;95872.56;;;7.28;100.00
25080;BME280;13071;48.868;9.996;2023-11-21T01:24:24;95879.72;;;7.24;100.00
25080;BME280;13071;48.868;9.996;2023-11-21T01:26:51;95872.09;;;7.26;100.00
25080;BME280;13071;48.868;9.996;2023-11-21T01:29:17;95871.31;;;7.25;100.00
25080;BME280;13071;48.868;9.996;2023-11-21T01:31:46;95866.13;;;7.20;100.00
25080;BME280;13071;48.868;9.996;2023-11-21T01:34:13;95876.88;;;7.20;100.00
25080;BME280;13071;48.868;9.996;2023-11-21T01:36:39;95881.63;;;7.23;100.00
25080;BME280;13071;48.868;9.996;2023-11-21T01:39:06;95875.78;;;7.21;100.00
25080;BME280;13071;48.868;9.996;2023-11-21T01:41:36;95870.38;;;7.21;100.00
25080;BME280;13071;48.868;9.996;2023-11-21T01:44:03;95873.28;;;7.16;100.00
25080;BME280;13071;48.868;9.996;2023-11-21T01:46:32;95875.66;;;7.18;100.00
25080;BME280;13071;48.868;9.996;2023-11-21T01:49:01;95878.66;;;7.16;100.00
25080;BME280;13071;48.868;9.996;2023-11-21T01:51:29;95871.06;;;7.18;100.00
25080;BME280;13071;48.868;9.996;2023-11-21T01:53:56;95874.66;;;7.22;100.00
25080;BME280;13071;48.868;9.996;2023-11-21T01:56:24;95875.94;;;7.25;100.00
25080;BME280;13071;48.868;9.996;2023-11-21T01:58:51;95874.47;;;7.27;100.00
25080;BME280;13071;48.868;9.996;2023-11-21T02:01:19;95872.56;;;7.28;100.00
25080;BME280;13071;48.868;9.996;2023-11-21T02:03:45;95870.69;;;7.28;100.00
25080;BME280;13071;48.868;9.996;2023-11-21T02:06:14;95870.00;;;7.31;100.00
25080;BME280;13071;48.868;9.996;2023-11-21T02:08:40;95868.25;;;7.35;100.00
25080;BME280;13071;48.868;9.996;2023-11-21T02:11:09;95871.88;;;7.40;100.00
25080;BME280;13071;48.868;9.996;2023-11-21T02:13:38;95870.16;;;7.35;100.00
25080;BME280;13071;48.868;9.996;2023-11-21T02:16:08;95867.91;;;7.37;100.00
25080;BME280;13071;48.868;9.996;2023-11-21T02:18:35;95867.06;;;7.45;100.00
25080;BME280;13071;48.868;9.996;2023-11-21T02:21:04;95867.84;;;7.46;100.00
25080;BME280;13071;48.868;9.996;2023-11-21T02:23:32;95876.41;;;7.48;100.00
25080;BME280;13071;48.868;9.996;2023-11-21T02:25:59;95867.53;;;7.47;100.00
25080;BME280;13071;48.868;9.996;2023-11-21T02:28:29;95869.91;;;7.49;100.00
25080;BME280;13071;48.868;9.996;2023-11-21T02:30:56;95869.75;;;7.45;100.00
25080;BME280;13071;48.868;9.996;2023-11-21T02:33:24;95869.00;;;7.45;100.00
25080;BME280;13071;48.868;9.996;2023-11-21T02:35:51;95870.34;;;7.51;100.00
25080;BME280;13071;48.868;9.996;2023-11-21T02:38:20;95869.25;;;7.52;100.00
25080;BME280;13071;48.868;9.996;2023-11-21T02:40:48;95858.03;;;7.50;100.00
25080;BME280;13071;48.868;9.996;2023-11-21T02:43:15;95853.88;;;7.52;100.00
25080;BME280;13071;48.868;9.996;2023-11-21T02:45:41;95868.44;;;7.51;100.00
25080;BME280;13071;48.868;9.996;2023-11-21T02:48:08;95867.66;;;7.51;100.00
25080;BME280;13071;48.868;9.996;2023-11-21T02:50:35;95873.19;;;7.54;100.00
25080;BME280;13071;48.868;9.996;2023-11-21T02:53:02;95868.00;;;7.49;100.00
25080;BME280;13071;48.868;9.996;2023-11-21T02:55:31;95852.97;;;7.48;100.00
25080;BME280;13071;48.868;9.996;2023-11-21T02:58:01;95856.06;;;7.59;100.00
25080;BME280;13071;48.868;9.996;2023-11-21T03:00:29;95857.56;;;7.68;100.00
25080;BME280;13071;48.868;9.996;2023-11-21T03:02:56;95860.28;;;7.60;100.00
25080;BME280;13071;48.868;9.996;2023-11-21T03:05:22;95859.97;;;7.82;100.00
25080;BME280;13071;48.868;9.996;2023-11-21T03:07:49;95853.88;;;7.73;100.00
25080;BME280;13071;48.868;9.996;2023-11-21T03:10:16;95853.59;;;7.66;100.00
25080;BME280;13071;48.868;9.996;2023-11-21T03:12:42;95855.50;;;7.65;100.00
25080;BME280;13071;48.868;9.996;2023-11-21T03:15:11;95852.88;;;7.57;100.00
25080;BME280;13071;48.868;9.996;2023-11-21T03:17:38;95851.97;;;7.53;100.00
25080;BME280;13071;48.868;9.996;2023-11-21T03:20:05;95851.66;;;7.54;100.00
25080;BME280;13071;48.868;9.996;2023-11-21T03:22:36;95857.03;;;7.54;100.00
25080;BME280;13071;48.868;9.996;2023-11-21T03:25:03;95856.97;;;7.63;100.00
25080;BME280;13071;48.868;9.996;2023-11-21T03:27:30;95859.06;;;7.57;100.00
25080;BME280;13071;48.868;9.996;2023-11-21T03:29:56;95859.38;;;7.56;100.00
25080;BME280;13071;48.868;9.996;2023-11-21T03:32:24;95852.88;;;7.57;100.00
25080;BME280;13071;48.868;9.996;2023-11-21T03:34:55;95860.53;;;7.55;100.00
25080;BME280;13071;48.868;9.996;2023-11-21T03:37:23;95852.44;;;7.55;100.00
25080;BME280;13071;48.868;9.996;2023-11-21T03:39:50;95855.78;;;7.52;100.00
25080;BME280;13071;48.868;9.996;2023-11-21T03:42:16;95863.34;;;7.58;100.00
25080;BME280;13071;48.868;9.996;2023-11-21T03:44:43;95854.97;;;7.51;100.00
25080;BME280;13071;48.868;9.996;2023-11-21T03:47:10;95854.53;;;7.49;100.00
25080;BME280;13071;48.868;9.996;2023-11-21T03:49:38;95853.59;;;7.45;100.00
25080;BME280;13071;48.868;9.996;2023-11-21T03:52:05;95856.56;;;7.52;100.00
25080;BME280;13071;48.868;9.996;2023-11-21T03:54:32;95852.38;;;7.43;100.00
25080;BME280;13071;48.868;9.996;2023-11-21T03:56:59;95852.63;;;7.50;100.00
25080;BME280;13071;48.868;9.996;2023-11-21T03:59:26;95849.00;;;7.46;100.00
25080;BME280;13071;48.868;9.996;2023-11-21T04:01:55;95849.47;;;7.48;100.00
25080;BME280;13071;48.868;9.996;2023-11-21T04:04:22;95851.50;;;7.51;100.00
25080;BME280;13071;48.868;9.996;2023-11-21T04:06:50;95855.13;;;7.55;100.00
25080;BME280;13071;48.868;9.996;2023-11-21T04:09:17;95850.88;;;7.54;100.00
25080;BME280;13071;48.868;9.996;2023-11-21T04:11:43;95859.06;;;7.57;100.00
25080;BME280;13071;48.868;9.996;2023-11-21T04:14:11;95862.06;;;7.56;100.00
25080;BME280;13071;48.868;9.996;2023-11-21T04:16:37;95867.13;;;7.57;100.00
25080;BME280;13071;48.868;9.996;2023-11-21T04:19:04;95860.56;;;7.46;100.00
25080;BME280;13071;48.868;9.996;2023-11-21T04:21:30;95867.53;;;7.47;100.00
25080;BME280;13071;48.868;9.996;2023-11-21T04:23:59;95862.03;;;7.44;100.00
25080;BME280;13071;48.868;9.996;2023-11-21T04:26:26;95862.81;;;7.44;100.00
25080;BME280;13071;48.868;9.996;2023-11-21T04:28:53;95866.28;;;7.45;100.00
25080;BME280;13071;48.868;9.996;2023-11-21T04:31:19;95870.41;;;7.42;100.00
25080;BME280;13071;48.868;9.996;2023-11-21T04:33:46;95863.41;;;7.50;100.00
25080;BME280;13071;48.868;9.996;2023-11-21T04:36:12;95870.34;;;7.51;100.00
25080;BME280;13071;48.868;9.996;2023-11-21T04:38:39;95872.59;;;7.49;100.00
25080;BME280;13071;48.868;9.996;2023-11-21T04:41:07;95875.94;;;7.46;100.00
25080;BME280;13071;48.868;9.996;2023-11-21T04:43:34;95881.97;;;7.43;100.00
25080;BME280;13071;48.868;9.996;2023-11-21T04:46:01;95875.59;;;7.47;100.00
25080;BME280;13071;48.868;9.996;2023-11-21T04:48:28;95882.06;;;7.55;100.00
25080;BME280;13071;48.868;9.996;2023-11-21T04:50:55;95890.47;;;7.53;100.00
25080;BME280;13071;48.868;9.996;2023-11-21T04:53:21;95886.97;;;7.53;100.00
25080;BME280;13071;48.868;9.996;2023-11-21T04:55:48;95879.88;;;7.48;100.00
25080;BME280;13071;48.868;9.996;2023-11-21T04:58:16;95886.06;;;7.49;100.00
25080;BME280;13071;48.868;9.996;2023-11-21T05:00:42;95882.25;;;7.50;100.00
25080;BME280;13071;48.868;9.996;2023-11-21T05:03:09;95888.38;;;7.59;100.00
25080;BME280;13071;48.868;9.996;2023-11-21T05:05:36;95897.06;;;7.56;100.00
25080;BME280;13071;48.868;9.996;2023-11-21T05:08:03;95905.53;;;7.46;100.00
25080;BME280;13071;48.868;9.996;2023-11-21T05:10:30;95892.75;;;7.43;100.00
25080;BME280;13071;48.868;9.996;2023-11-21T05:12:56;95888.94;;;7.44;100.00
25080;BME280;13071;48.868;9.996;2023-11-21T05:15:25;95899.72;;;7.44;100.00
25080;BME280;13071;48.868;9.996;2023-11-21T05:17:52;95895.78;;;7.62;100.00
25080;BME280;13071;48.868;9.996;2023-11-21T05:20:20;95901.28;;;7.45;100.00
25080;BME280;13071;48.868;9.996;2023-11-21T05:22:47;95890.53;;;7.45;100.00
25080;BME280;13071;48.868;9.996;2023-11-21T05:25:14;95894.72;;;7.54;100.00
25080;BME280;13071;48.868;9.996;2023-11-21T05:27:43;95902.06;;;7.45;100.00
25080;BME280;13071;48.868;9.996;2023-11-21T05:30:10;95900.69;;;7.39;100.00
25080;BME280;13071;48.868;9.996;2023-11-21T05:32:39;95899.97;;;7.51;100.00
25080;BME280;13071;48.868;9.996;2023-11-21T05:35:07;95919.53;;;7.39;100.00
25080;BME280;13071;48.868;9.996;2023-11-21T05:37:39;95915.69;;;7.40;100.00
25080;BME280;13071;48.868;9.996;2023-11-21T05:40:07;95926.81;;;7.38;100.00
25080;BME280;13071;48.868;9.996;2023-11-21T05:42:34;95933.63;;;7.36;100.00
25080;BME280;13071;48.868;9.996;2023-11-21T05:45:01;95921.63;;;7.33;100.00
25080;BME280;13071;48.868;9.996;2023-11-21T05:47:36;95924.75;;;7.35;100.00
25080;BME280;13071;48.868;9.996;2023-11-21T05:50:07;95923.34;;;7.38;100.00
25080;BME280;13071;48.868;9.996;2023-11-21T05:52:37;95921.31;;;7.35;100.00
25080;BME280;13071;48.868;9.996;2023-11-21T05:55:05;95921.63;;;7.33;100.00
25080;BME280;13071;48.868;9.996;2023-11-21T05:57:32;95919.72;;;7.34;100.00
25080;BME280;13071;48.868;9.996;2023-11-21T05:59:59;95918.47;;;7.31;100.00
25080;BME280;13071;48.868;9.996;2023-11-21T06:02:28;95926.28;;;7.24;100.00
25080;BME280;13071;48.868;9.996;2023-11-21T06:04:55;95926.09;;;7.21;100.00
25080;BME280;13071;48.868;9.996;2023-11-21T06:07:23;95938.78;;;7.20;100.00
25080;BME280;13071;48.868;9.996;2023-11-21T06:09:50;95943.56;;;7.15;100.00
25080;BME280;13071;48.868;9.996;2023-11-21T06:12:16;95941.19;;;7.13;100.00
25080;BME280;13071;48.868;9.996;2023-11-21T06:14:45;95942.66;;;7.02;100.00
25080;BME280;13071;48.868;9.996;2023-11-21T06:17:13;95944.25;;;7.03;100.00
25080;BME280;13071;48.868;9.996;2023-11-21T06:19:39;95947.25;;;7.02;100.00
25080;BME280;13071;48.868;9.996;2023-11-21T06:22:06;95955.16;;;7.07;100.00
25080;BME280;13071;48.868;9.996;2023-11-21T06:24:34;95946.41;;;7.18;100.00
25080;BME280;13071;48.868;9.996;2023-11-21T06:27:03;95947.06;;;7.15;100.00
25080;BME280;13071;48.868;9.996;2023-11-21T06:29:30;95946.41;;;7.18;100.00
25080;BME280;13071;48.868;9.996;2023-11-21T06:31:57;95953.19;;;7.24;100.00
25080;BME280;13071;48.868;9.996;2023-11-21T06:34:24;95952.53;;;7.27;100.00
25080;BME280;13071;48.868;9.996;2023-11-21T06:36:50;95956.13;;;7.31;100.00
25080;BME280;13071;48.868;9.996;2023-11-21T06:39:17;95953.63;;;7.26;100.00
25080;BME280;13071;48.868;9.996;2023-11-21T06:41:49;95958.50;;;7.33;100.00
25080;BME280;13071;48.868;9.996;2023-11-21T06:44:15;95956.31;;;7.35;100.00
25080;BME280;13071;48.868;9.996;2023-11-21T06:46:42;95967.25;;;7.30;100.00
25080;BME280;13071;48.868;9.996;2023-11-21T06:49:08;95965.91;;;7.45;100.00
25080;BME280;13071;48.868;9.996;2023-11-21T06:51:36;95964.03;;;7.36;100.00
25080;BME280;13071;48.868;9.996;2023-11-21T06:54:03;95964.22;;;7.31;100.00
25080;BME280;13071;48.868;9.996;2023-11-21T06:56:29;95965.81;;;7.32;100.00
25080;BME280;13071;48.868;9.996;2023-11-21T06:58:57;95975.28;;;7.38;100.00
25080;BME280;13071;48.868;9.996;2023-11-21T07:01:24;95974.00;;;7.36;100.00
25080;BME280;13071;48.868;9.996;2023-11-21T07:03:51;95983.34;;;7.38;100.00
25080;BME280;13071;48.868;9.996;2023-11-21T07:06:17;95983.91;;;7.53;100.00
25080;BME280;13071;48.868;9.996;2023-11-21T07:08:44;95990.16;;;7.65;100.00
25080;BME280;13071;48.868;9.996;2023-11-21T07:11:10;95997.84;;;7.55;100.00
25080;BME280;13071;48.868;9.996;2023-11-21T07:13:37;95995.72;;;7.60;100.00
25080;BME280;13071;48.868;9.996;2023-11-21T07:16:06;96003.19;;;7.63;100.00
25080;BME280;13071;48.868;9.996;2023-11-21T07:18:32;96006.19;;;7.62;100.00
25080;BME280;13071;48.868;9.996;2023-11-21T07:20:59;96002.50;;;7.66;100.00
25080;BME280;13071;48.868;9.996;2023-11-21T07:23:25;96007.66;;;7.51;100.00
25080;BME280;13071;48.868;9.996;2023-11-21T07:25:52;96013.03;;;7.51;100.00
25080;BME280;13071;48.868;9.996;2023-11-21T07:28:19;96012.38;;;7.62;100.00
25080;BME280;13071;48.868;9.996;2023-11-21T07:30:45;96016.34;;;7.56;100.00
25080;BME280;13071;48.868;9.996;2023-11-21T07:33:13;96012.41;;;7.54;100.00
25080;BME280;13071;48.868;9.996;2023-11-21T07:35:40;96026.66;;;7.54;100.00
25080;BME280;13071;48.868;9.996;2023-11-21T07:38:07;96020.31;;;7.59;100.00
25080;BME280;13071;48.868;9.996;2023-11-21T07:40:34;96025.97;;;7.66;100.00
25080;BME280;13071;48.868;9.996;2023-11-21T07:43:00;96028.16;;;7.72;100.00
25080;BME280;13071;48.868;9.996;2023-11-21T07:45:27;96026.75;;;7.66;100.00
25080;BME280;13071;48.868;9.996;2023-11-21T07:47:53;96033.59;;;7.64;100.00
25080;BME280;13071;48.868;9.996;2023-11-21T07:50:21;96031.16;;;7.71;100.00
25080;BME280;13071;48.868;9.996;2023-11-21T07:52:48;96035.00;;;7.61;100.00
25080;BME280;13071;48.868;9.996;2023-11-21T07:55:15;96027.53;;;7.67;100.00
25080;BME280;13071;48.868;9.996;2023-11-21T07:57:42;96032.19;;;7.58;100.00
25080;BME280;13071;48.868;9.996;2023-11-21T08:00:10;96030.56;;;7.65;100.00
25080;BME280;13071;48.868;9.996;2023-11-21T08:02:37;96029.38;;;7.75;100.00
25080;BME280;13071;48.868;9.996;2023-11-21T08:05:05;96032.94;;;7.67;100.00
25080;BME280;13071;48.868;9.996;2023-11-21T08:07:33;96030.22;;;7.67;100.00
25080;BME280;13071;48.868;9.996;2023-11-21T08:10:00;96029.44;;;7.66;100.00
25080;BME280;13071;48.868;9.996;2023-11-21T08:12:27;96030.53;;;7.74;100.00
25080;BME280;13071;48.868;9.996;2023-11-21T08:14:53;96032.56;;;7.77;100.00
25080;BME280;13071;48.868;9.996;2023-11-21T08:17:20;96039.06;;;7.76;100.00
25080;BME280;13071;48.868;9.996;2023-11-21T08:19:46;96031.91;;;7.80;100.00
25080;BME280;13071;48.868;9.996;2023-11-21T08:22:15;96035.34;;;7.89;100.00
25080;BME280;13071;48.868;9.996;2023-11-21T08:24:44;96035.66;;;7.88;100.00
25080;BME280;13071;48.868;9.996;2023-11-21T08:27:12;96043.25;;;7.94;100.00
25080;BME280;13071;48.868;9.996;2023-11-21T08:29:41;96039.75;;;8.14;100.00
25080;BME280;13071;48.868;9.996;2023-11-21T08:32:08;96038.84;;;8.10;100.00
25080;BME280;13071;48.868;9.996;2023-11-21T08:34:35;96043.84;;;8.20;100.00
25080;BME280;13071;48.868;9.996;2023-11-21T08:37:01;96049.09;;;8.17;100.00
25080;BME280;13071;48.868;9.996;2023-11-21T08:39:28;96050.22;;;8.16;100.00
25080;BME280;13071;48.868;9.996;2023-11-21T08:41:57;96055.59;;;8.16;100.00
25080;BME280;13071;48.868;9.996;2023-11-21T08:44:23;96065.72;;;8.19;100.00
25080;BME280;13071;48.868;9.996;2023-11-21T08:46:50;96063.94;;;8.32;100.00
25080;BME280;13071;48.868;9.996;2023-11-21T08:49:17;96061.88;;;8.29;100.00
25080;BME280;13071;48.868;9.996;2023-11-21T08:51:44;96060.84;;;8.42;100.00
25080;BME280;13071;48.868;9.996;2023-11-21T08:54:11;96067.44;;;8.53;100.00
25080;BME280;13071;48.868;9.996;2023-11-21T08:56:37;96060.63;;;8.68;100.00
25080;BME280;13071;48.868;9.996;2023-11-21T08:59:05;96064.78;;;8.65;100.00
25080;BME280;13071;48.868;9.996;2023-11-21T09:01:33;96071.63;;;8.62;100.00
25080;BME280;13071;48.868;9.996;2023-11-21T09:04:00;96076.03;;;8.67;100.00
25080;BME280;13071;48.868;9.996;2023-11-21T09:06:27;96061.56;;;8.84;100.00
25080;BME280;13071;48.868;9.996;2023-11-21T09:08:54;96074.94;;;8.80;100.00
25080;BME280;13071;48.868;9.996;2023-11-21T09:11:21;96072.53;;;8.87;100.00
25080;BME280;13071;48.868;9.996;2023-11-21T09:13:47;96070.25;;;8.89;100.00
25080;BME280;13071;48.868;9.996;2023-11-21T09:16:15;96070.09;;;9.06;100.00
25080;BME280;13071;48.868;9.996;2023-11-21T09:18:42;96072.44;;;8.96;100.00
25080;BME280;13071;48.868;9.996;2023-11-21T09:21:08;96071.91;;;9.02;100.00
25080;BME280;13071;48.868;9.996;2023-11-21T09:23:35;96076.63;;;9.05;100.00
25080;BME280;13071;48.868;9.996;2023-11-21T09:26:02;96075.72;;;9.14;100.00
25080;BME280;13071;48.868;9.996;2023-11-21T09:28:28;96078.91;;;9.28;100.00
25080;BME280;13071;48.868;9.996;2023-11-21T09:30:55;96087.59;;;9.33;100.00
25080;BME280;13071;48.868;9.996;2023-11-21T09:33:23;96097.97;;;9.31;100.00
25080;BME280;13071;48.868;9.996;2023-11-21T09:35:50;96092.06;;;9.17;100.00
25080;BME280;13071;48.868;9.996;2023-11-21T09:38:18;96096.38;;;9.30;100.00
25080;BME280;13071;48.868;9.996;2023-11-21T09:40:44;96090.28;;;9.33;100.00
25080;BME280;13071;48.868;9.996;2023-11-21T09:43:16;96092.09;;;9.29;100.00
25080;BME280;13071;48.868;9.996;2023-11-21T09:45:46;96095.25;;;9.31;100.00
25080;BME280;13071;48.868;9.996;2023-11-21T09:48:14;96094.56;;;9.34;100.00
25080;BME280;13071;48.868;9.996;2023-11-21T09:50:43;96094.56;;;9.34;100.00
25080;BME280;13071;48.868;9.996;2023-11-21T09:53:13;96098.66;;;9.40;100.00
25080;BME280;13071;48.868;9.996;2023-11-21T09:55:45;96104.16;;;9.44;100.00
25080;BME280;13071;48.868;9.996;2023-11-21T09:58:13;96100.22;;;9.41;99.47
25080;BME280;13071;48.868;9.996;2023-11-21T10:00:41;96098.75;;;9.44;99.32
25080;BME280;13071;48.868;9.996;2023-11-21T10:03:08;96098.75;;;9.44;99.54
25080;BME280;13071;48.868;9.996;2023-11-21T10:05:35;96105.28;;;9.43;100.00
25080;BME280;13071;48.868;9.996;2023-11-21T10:08:04;96103.28;;;9.52;100.00
25080;BME280;13071;48.868;9.996;2023-11-21T10:10:33;96100.13;;;9.50;100.00
25080;BME280;13071;48.868;9.996;2023-11-21T10:13:03;96099.47;;;9.65;100.00
25080;BME280;13071;48.868;9.996;2023-11-21T10:15:33;96100.00;;;9.59;99.39
25080;BME280;13071;48.868;9.996;2023-11-21T10:18:02;96103.53;;;9.71;99.75
25080;BME280;13071;48.868;9.996;2023-11-21T10:20:29;96102.50;;;9.64;98.49
25080;BME280;13071;48.868;9.996;2023-11-21T10:22:55;96098.34;;;9.66;99.16
25080;BME280;13071;48.868;9.996;2023-11-21T10:25:24;96097.22;;;9.67;99.13
25080;BME280;13071;48.868;9.996;2023-11-21T10:27:57;96101.38;;;9.77;98.21
25080;BME280;13071;48.868;9.996;2023-11-21T10:30:28;96099.13;;;9.79;98.08
25080;BME280;13071;48.868;9.996;2023-11-21T10:32:59;96098.03;;;9.80;98.47
25080;BME280;13071;48.868;9.996;2023-11-21T10:35:38;96098.22;;;9.87;98.53
25080;BME280;13071;48.868;9.996;2023-11-21T10:38:05;96107.03;;;9.96;98.71
25080;BME280;13071;48.868;9.996;2023-11-21T10:40:37;96103.53;;;10.08;97.29
25080;BME280;13071;48.868;9.996;2023-11-21T10:43:06;96112.91;;;10.10;97.32
25080;BME280;13071;48.868;9.996;2023-11-21T10:45:34;96105.38;;;10.16;97.25
25080;BME280;13071;48.868;9.996;2023-11-21T10:48:05;96107.91;;;10.12;97.14
25080;BME280;13071;48.868;9.996;2023-11-21T10:50:32;96106.69;;;10.10;97.63
25080;BME280;13071;48.868;9.996;2023-11-21T10:53:01;96112.47;;;10.20;96.83
25080;BME280;13071;48.868;9.996;2023-11-21T10:55:29;96109.97;;;10.15;96.71
25080;BME280;13071;48.868;9.996;2023-11-21T10:57:58;96109.53;;;10.25;95.23
25080;BME280;13071;48.868;9.996;2023-11-21T11:00:27;96104.78;;;9.98;92.85
25080;BME280;13071;48.868;9.996;2023-11-21T11:02:55;96109.16;;;9.78;94.03
25080;BME280;13071;48.868;9.996;2023-11-21T11:05:23;96107.34;;;9.82;94.48
25080;BME280;13071;48.868;9.996;2023-11-21T11:07:54;96099.72;;;9.84;95.23
25080;BME280;13071;48.868;9.996;2023-11-21T11:10:25;96100.19;;;9.86;96.25
25080;BME280;13071;48.868;9.996;2023-11-21T11:12:53;96106.00;;;9.88;96.29
25080;BME280;13071;48.868;9.996;2023-11-21T11:15:22;96100.59;;;9.88;96.24
25080;BME280;13071;48.868;9.996;2023-11-21T11:17:49;96096.44;;;9.91;97.10
25080;BME280;13071;48.868;9.996;2023-11-21T11:20:16;96100.81;;;10.08;94.12
25080;BME280;13071;48.868;9.996;2023-11-21T11:22:50;96102.41;;;10.09;92.94
25080;BME280;13071;48.868;9.996;2023-11-21T11:25:38;96101.19;;;10.06;92.96
25080;BME280;13071;48.868;9.996;2023-11-21T11:28:12;96100.72;;;10.16;95.37
25080;BME280;13071;48.868;9.996;2023-11-21T11:30:51;96098.47;;;10.18;94.09
25080;BME280;13071;48.868;9.996;2023-11-21T11:33:31;96093.84;;;10.07;94.21
25080;BME280;13071;48.868;9.996;2023-11-21T11:36:06;96095.09;;;10.09;94.53
25080;BME280;13071;48.868;9.996;2023-11-21T11:38:34;96096.75;;;10.02;94.24
25080;BME280;13071;48.868;9.996;2023-11-21T11:41:02;96101.19;;;9.94;94.44
25080;BME280;13071;48.868;9.996;2023-11-21T11:43:30;96106.47;;;9.90;92.84
25080;BME280;13071;48.868;9.996;2023-11-21T11:46:02;96104.66;;;9.82;92.81
25080;BME280;13071;48.868;9.996;2023-11-21T11:48:29;96111.09;;;9.90;92.16
25080;BME280;13071;48.868;9.996;2023-11-21T11:51:04;96109.16;;;9.78;91.94
25080;BME280;13071;48.868;9.996;2023-11-21T11:53:36;96108.66;;;9.40;93.11
25080;BME280;13071;48.868;9.996;2023-11-21T11:56:22;96114.78;;;9.61;94.60
25080;BME280;13071;48.868;9.996;2023-11-21T11:58:51;96110.25;;;9.41;93.77
25080;BME280;13071;48.868;9.996;2023-11-21T12:01:20;96105.75;;;9.57;94.10
25080;BME280;13071;48.868;9.996;2023-11-21T12:06:50;96110.69;;;9.43;95.62
25080;BME280;13071;48.868;9.996;2023-11-21T12:09:18;96110.88;;;9.26;98.06
25080;BME280;13071;48.868;9.996;2023-11-21T12:11:45;96098.13;;;8.81;100.00
25080;BME280;13071;48.868;9.996;2023-11-21T12:14:13;96105.75;;;8.79;100.00
25080;BME280;13071;48.868;9.996;2023-11-21T12:16:41;96108.41;;;8.46;100.00
25080;BME280;13071;48.868;9.996;2023-11-21T12:19:09;96112.91;;;8.54;100.00
25080;BME280;13071;48.868;9.996;2023-11-21T12:21:36;96117.66;;;8.78;100.00
25080;BME280;13071;48.868;9.996;2023-11-21T12:24:03;96117.72;;;8.90;100.00
25080;BME280;13071;48.868;9.996;2023-11-21T12:26:34;96117.25;;;8.88;100.00
25080;BME280;13071;48.868;9.996;2023-11-21T12:29:00;96112.72;;;8.80;100.00
25080;BME280;13071;48.868;9.996;2023-11-21T12:31:29;96115.84;;;9.36;100.00
25080;BME280;13071;48.868;9.996;2023-11-21T12:33:57;96121.25;;;9.36;100.00
25080;BME280;13071;48.868;9.996;2023-11-21T12:36:24;96123.06;;;9.32;100.00
25080;BME280;13071;48.868;9.996;2023-11-21T12:38:51;96126.38;;;9.17;100.00
25080;BME280;13071;48.868;9.996;2023-11-21T12:41:18;96123.09;;;9.56;100.00
25080;BME280;13071;48.868;9.996;2023-11-21T12:43:46;96135.84;;;9.80;98.02
25080;BME280;13071;48.868;9.996;2023-11-21T12:46:13;96138.47;;;9.43;98.41
25080;BME280;13071;48.868;9.996;2023-11-21T12:48:41;96140.44;;;9.67;100.00
25080;BME280;13071;48.868;9.996;2023-11-21T12:51:10;96131.09;;;9.77;99.34
25080;BME280;13071;48.868;9.996;2023-11-21T12:53:37;96134.84;;;10.09;98.03
25080;BME280;13071;48.868;9.996;2023-11-21T12:56:07;96138.00;;;9.86;96.98
25080;BME280;13071;48.868;9.996;2023-11-21T12:58:34;96140.59;;;9.38;99.53
25080;BME280;13071;48.868;9.996;2023-11-21T13:01:01;96130.25;;;9.40;100.00
25080;BME280;13071;48.868;9.996;2023-11-21T13:03:29;96132.72;;;9.33;99.68
25080;BME280;13071;48.868;9.996;2023-11-21T13:05:56;96138.63;;;9.14;100.00
25080;BME280;13071;48.868;9.996;2023-11-21T13:08:26;96143.19;;;9.01;99.51